createdAt,value
2019-05-28T00:00:20.538Z,60.36
2019-05-28T00:01:19.528Z,60.06
2019-05-28T00:02:19.512Z,60.06
2019-05-28T00:03:19.516Z,60.06
2019-05-28T00:04:19.484Z,60.06
2019-05-28T00:05:19.470Z,60.46
2019-05-28T00:06:19.480Z,60.06
2019-05-28T00:07:19.473Z,60.16
2019-05-28T00:08:19.470Z,59.97
2019-05-28T00:09:19.444Z,59.56
2019-05-28T00:10:19.472Z,60.16
2019-05-28T00:11:19.405Z,59.97
2019-05-28T00:12:19.577Z,60.36
2019-05-28T00:13:19.414Z,60.06
2019-05-28T00:14:19.489Z,59.77
2019-05-28T00:15:19.386Z,60.06
2019-05-28T00:16:19.375Z,59.66
2019-05-28T00:17:19.425Z,59.56
2019-05-28T00:18:19.344Z,59.89
2019-05-28T00:19:19.317Z,59.47
2019-05-28T00:20:19.406Z,59.56
2019-05-28T00:21:19.294Z,59.47
2019-05-28T00:22:19.286Z,59.89
2019-05-28T00:23:19.296Z,59.97
2019-05-28T00:24:19.410Z,59.79
2019-05-28T00:25:19.250Z,59.97
2019-05-28T00:26:19.246Z,60.27
2019-05-28T00:27:19.233Z,60.16
2019-05-28T00:28:19.235Z,59.77
2019-05-28T00:29:19.215Z,60.16
2019-05-28T00:30:20.860Z,60.06
2019-05-28T00:31:19.250Z,59.59
2019-05-28T00:32:19.178Z,59.56
2019-05-28T00:33:19.194Z,60.27
2019-05-28T00:34:19.160Z,59.86
2019-05-28T00:35:19.144Z,59.86
2019-05-28T00:36:19.170Z,59.66
2019-05-28T00:37:19.122Z,60.16
2019-05-28T00:38:19.134Z,59.99
2019-05-28T00:39:19.100Z,59.97
2019-05-28T00:40:19.086Z,60.10
2019-05-28T00:41:19.129Z,60.06
2019-05-28T00:42:19.221Z,60.27
2019-05-28T00:43:19.067Z,59.99
2019-05-28T00:44:19.048Z,60.10
2019-05-28T00:45:19.038Z,60.39
2019-05-28T00:46:19.056Z,60.10
2019-05-28T00:47:19.140Z,60.19
2019-05-28T00:48:19.026Z,60.16
2019-05-28T00:49:18.995Z,60.10
2019-05-28T00:50:18.980Z,59.89
2019-05-28T00:51:18.971Z,59.99
2019-05-28T00:52:19.006Z,60.10
2019-05-28T00:53:18.981Z,60.10
2019-05-28T00:54:19.926Z,60.06
2019-05-28T00:55:18.974Z,60.16
2019-05-28T00:56:18.931Z,60.19
2019-05-28T00:57:18.907Z,60.10
2019-05-28T00:58:18.915Z,59.36
2019-05-28T00:59:18.904Z,59.49
2019-05-28T01:00:36.179Z,59.89
2019-05-28T01:01:19.863Z,60.06
2019-05-28T01:02:18.938Z,59.59
2019-05-28T01:03:18.836Z,59.59
2019-05-28T01:04:18.845Z,59.09
2019-05-28T01:05:18.815Z,59.89
2019-05-28T01:06:18.806Z,59.36
2019-05-28T01:07:18.801Z,59.39
2019-05-28T01:08:18.783Z,59.49
2019-05-28T01:09:18.887Z,59.09
2019-05-28T01:10:18.769Z,59.09
2019-05-28T01:11:18.751Z,59.49
2019-05-28T01:12:18.743Z,59.09
2019-05-28T01:13:18.730Z,59.49
2019-05-28T01:14:18.734Z,59.59
2019-05-28T01:15:18.706Z,59.89
2019-05-28T01:16:18.789Z,59.89
2019-05-28T01:17:18.687Z,59.49
2019-05-28T01:18:18.671Z,59.39
2019-05-28T01:19:18.683Z,59.69
2019-05-28T01:20:18.662Z,59.30
2019-05-28T01:21:18.643Z,59.19
2019-05-28T01:22:18.632Z,59.79
2019-05-28T01:23:18.624Z,59.39
2019-05-28T01:24:18.624Z,59.79
2019-05-28T01:25:18.593Z,59.89
2019-05-28T01:26:18.595Z,59.79
2019-05-28T01:27:18.576Z,59.79
2019-05-28T01:28:18.739Z,59.59
2019-05-28T01:29:18.551Z,59.39
2019-05-28T01:30:18.559Z,59.79
2019-05-28T01:31:18.527Z,59.49
2019-05-28T01:32:18.675Z,59.79
2019-05-28T01:33:18.518Z,59.79
2019-05-28T01:34:18.549Z,60.19
2019-05-28T01:35:18.493Z,58.49
2019-05-28T01:36:18.481Z,59.69
2019-05-28T01:37:18.464Z,60.19
2019-05-28T01:38:18.456Z,60.12
2019-05-28T01:39:18.496Z,60.10
2019-05-28T01:40:18.578Z,60.10
2019-05-28T01:41:18.473Z,60.12
2019-05-28T01:42:18.411Z,60.02
2019-05-28T01:43:18.401Z,59.89
2019-05-28T01:44:18.632Z,59.30
2019-05-28T01:45:18.379Z,59.52
2019-05-28T01:46:18.409Z,59.69
2019-05-28T01:47:18.370Z,59.39
2019-05-28T01:48:18.352Z,59.59
2019-05-28T01:49:18.372Z,59.42
2019-05-28T01:50:18.335Z,59.82
2019-05-28T01:51:18.876Z,59.42
2019-05-28T01:52:18.307Z,59.42
2019-05-28T01:53:18.522Z,58.62
2019-05-28T01:54:18.297Z,60.02
2019-05-28T01:55:18.268Z,59.92
2019-05-28T01:56:18.407Z,59.32
2019-05-28T01:57:18.287Z,59.30
2019-05-28T01:58:18.238Z,59.39
2019-05-28T01:59:18.242Z,59.49
2019-05-28T02:00:18.312Z,59.52
2019-05-28T02:01:18.201Z,59.39
2019-05-28T02:02:18.201Z,59.52
2019-05-28T02:03:18.184Z,60.02
2019-05-28T02:04:18.501Z,59.42
2019-05-28T02:05:18.177Z,59.82
2019-05-28T02:06:18.170Z,59.32
2019-05-28T02:07:18.282Z,59.42
2019-05-28T02:08:18.231Z,59.42
2019-05-28T02:09:18.126Z,59.22
2019-05-28T02:10:18.132Z,59.32
2019-05-28T02:11:18.164Z,59.22
2019-05-28T02:12:18.186Z,59.32
2019-05-28T02:13:18.181Z,59.52
2019-05-28T02:14:18.079Z,59.52
2019-05-28T02:15:18.119Z,59.52
2019-05-28T02:16:18.214Z,59.62
2019-05-28T02:17:18.071Z,59.52
2019-05-28T02:18:18.022Z,59.32
2019-05-28T02:19:18.058Z,59.02
2019-05-28T02:20:18.033Z,59.02
2019-05-28T02:21:18.069Z,59.32
2019-05-28T02:22:17.986Z,59.02
2019-05-28T02:23:17.996Z,58.42
2019-05-28T02:24:19.055Z,58.52
2019-05-28T02:25:17.968Z,58.52
2019-05-28T02:26:17.998Z,58.52
2019-05-28T02:27:18.050Z,58.52
2019-05-28T02:28:17.943Z,58.62
2019-05-28T02:29:17.934Z,58.82
2019-05-28T02:30:17.915Z,58.72
2019-05-28T02:31:27.343Z,58.72
2019-05-28T02:32:18.878Z,58.62
2019-05-28T02:33:17.865Z,58.72
2019-05-28T02:34:17.857Z,58.72
2019-05-28T02:35:17.858Z,58.72
2019-05-28T02:36:17.833Z,58.72
2019-05-28T02:37:17.821Z,58.72
2019-05-28T02:38:17.816Z,58.92
2019-05-28T02:39:17.803Z,58.72
2019-05-28T02:40:17.812Z,58.82
2019-05-28T02:41:17.782Z,58.62
2019-05-28T02:42:17.780Z,58.72
2019-05-28T02:43:17.764Z,58.82
2019-05-28T02:44:17.749Z,58.82
2019-05-28T02:45:17.768Z,58.92
2019-05-28T02:46:17.774Z,58.95
2019-05-28T02:47:17.734Z,58.92
2019-05-28T02:48:17.709Z,59.42
2019-05-28T02:49:17.699Z,59.42
2019-05-28T02:50:17.706Z,58.52
2019-05-28T02:51:17.684Z,59.32
2019-05-28T02:52:17.665Z,58.72
2019-05-28T02:53:17.671Z,58.62
2019-05-28T02:54:17.647Z,58.42
2019-05-28T02:55:17.652Z,58.62
2019-05-28T02:56:17.631Z,58.62
2019-05-28T02:57:17.670Z,58.62
2019-05-28T02:58:17.611Z,58.52
2019-05-28T02:59:17.595Z,58.32
2019-05-28T03:00:17.594Z,58.52
2019-05-28T03:01:17.572Z,58.52
2019-05-28T03:02:17.558Z,58.32
2019-05-28T03:03:17.559Z,58.45
2019-05-28T03:04:17.547Z,58.22
2019-05-28T03:05:17.538Z,58.22
2019-05-28T03:06:17.521Z,58.42
2019-05-28T03:07:17.507Z,58.55
2019-05-28T03:08:17.502Z,58.22
2019-05-28T03:09:17.508Z,58.55
2019-05-28T03:10:17.492Z,58.42
2019-05-28T03:11:17.470Z,58.25
2019-05-28T03:12:17.476Z,58.22
2019-05-28T03:13:17.460Z,58.12
2019-05-28T03:14:17.434Z,58.62
2019-05-28T03:15:17.436Z,58.72
2019-05-28T03:16:17.413Z,58.72
2019-05-28T03:17:17.399Z,59.05
2019-05-28T03:18:17.395Z,58.72
2019-05-28T03:19:17.384Z,59.02
2019-05-28T03:20:17.394Z,58.55
2019-05-28T03:21:17.403Z,59.02
2019-05-28T03:22:17.346Z,58.65
2019-05-28T03:23:17.339Z,58.55
2019-05-28T03:24:17.325Z,58.65
2019-05-28T03:25:17.312Z,58.75
2019-05-28T03:26:17.318Z,58.55
2019-05-28T03:27:17.296Z,58.95
2019-05-28T03:28:17.289Z,58.95
2019-05-28T03:29:17.272Z,58.95
2019-05-28T03:30:17.270Z,58.45
2019-05-28T03:31:17.273Z,58.52
2019-05-28T03:32:17.255Z,58.35
2019-05-28T03:33:17.235Z,58.32
2019-05-28T03:34:17.230Z,58.35
2019-05-28T03:35:17.209Z,58.55
2019-05-28T03:36:17.213Z,58.55
2019-05-28T03:37:17.194Z,58.65
2019-05-28T03:38:17.178Z,58.55
2019-05-28T03:39:17.169Z,58.55
2019-05-28T03:40:17.161Z,58.45
2019-05-28T03:41:17.161Z,58.35
2019-05-28T03:42:17.132Z,58.85
2019-05-28T03:43:17.126Z,58.45
2019-05-28T03:44:17.114Z,58.85
2019-05-28T03:45:17.112Z,58.55
2019-05-28T03:46:17.102Z,58.35
2019-05-28T03:47:17.085Z,58.45
2019-05-28T03:48:17.068Z,58.05
2019-05-28T03:49:17.061Z,58.25
2019-05-28T03:50:17.051Z,58.05
2019-05-28T03:51:17.053Z,58.35
2019-05-28T03:52:17.027Z,58.25
2019-05-28T03:53:17.025Z,58.35
2019-05-28T03:54:17.010Z,58.35
2019-05-28T03:55:17.000Z,58.15
2019-05-28T03:56:17.011Z,58.15
2019-05-28T03:57:17.042Z,58.15
2019-05-28T03:58:16.970Z,58.05
2019-05-28T03:59:16.957Z,58.05
2019-05-28T04:00:16.945Z,58.05
2019-05-28T04:01:16.948Z,58.05
2019-05-28T04:02:23.512Z,58.15
2019-05-28T04:03:17.928Z,58.45
2019-05-28T04:04:16.910Z,59.95
2019-05-28T04:05:16.891Z,60.15
2019-05-28T04:06:17.871Z,60.25
2019-05-28T04:07:16.873Z,59.85
2019-05-28T04:08:16.902Z,59.72
2019-05-28T04:09:16.860Z,59.55
2019-05-28T04:10:16.839Z,59.45
2019-05-28T04:11:16.847Z,59.45
2019-05-28T04:12:16.831Z,59.55
2019-05-28T04:13:16.815Z,59.75
2019-05-28T04:14:16.961Z,59.25
2019-05-28T04:15:16.805Z,59.65
2019-05-28T04:16:16.803Z,59.02
2019-05-28T04:17:16.812Z,59.35
2019-05-28T04:18:16.760Z,60.02
2019-05-28T04:19:16.754Z,60.12
2019-05-28T04:20:16.750Z,59.82
2019-05-28T04:21:16.731Z,59.35
2019-05-28T04:22:16.742Z,59.55
2019-05-28T04:23:16.713Z,59.62
2019-05-28T04:24:16.694Z,59.15
2019-05-28T04:25:16.686Z,58.82
2019-05-28T04:26:16.686Z,59.05
2019-05-28T04:27:16.681Z,58.52
2019-05-28T04:28:16.664Z,58.72
2019-05-28T04:29:16.649Z,58.95
2019-05-28T04:30:16.814Z,58.72
2019-05-28T04:31:16.628Z,58.75
2019-05-28T04:32:16.627Z,59.25
2019-05-28T04:33:16.609Z,59.35
2019-05-28T04:34:16.600Z,59.65
2019-05-28T04:35:16.585Z,59.62
2019-05-28T04:36:16.581Z,59.82
2019-05-28T04:37:16.572Z,59.65
2019-05-28T04:38:16.555Z,59.85
2019-05-28T04:39:16.553Z,59.75
2019-05-28T04:40:16.532Z,59.35
2019-05-28T04:41:16.540Z,59.75
2019-05-28T04:42:16.529Z,59.25
2019-05-28T04:43:16.502Z,59.85
2019-05-28T04:44:16.496Z,59.85
2019-05-28T04:45:16.481Z,59.85
2019-05-28T04:46:16.474Z,59.85
2019-05-28T04:47:16.472Z,59.22
2019-05-28T04:48:16.452Z,59.55
2019-05-28T04:49:16.454Z,60.45
2019-05-28T04:50:16.432Z,60.15
2019-05-28T04:51:16.439Z,60.85
2019-05-28T04:52:16.514Z,60.65
2019-05-28T04:53:16.401Z,60.95
2019-05-28T04:54:16.393Z,60.65
2019-05-28T04:55:16.379Z,61.25
2019-05-28T04:56:16.377Z,60.85
2019-05-28T04:57:16.378Z,60.35
2019-05-28T04:58:16.357Z,60.55
2019-05-28T04:59:16.334Z,60.15
2019-05-28T05:00:16.326Z,60.35
2019-05-28T05:01:16.315Z,60.65
2019-05-28T05:02:16.326Z,60.35
2019-05-28T05:03:16.375Z,60.05
2019-05-28T05:04:16.280Z,60.25
2019-05-28T05:05:16.272Z,59.55
2019-05-28T05:06:16.354Z,59.45
2019-05-28T05:07:16.270Z,58.35
2019-05-28T05:08:16.927Z,58.85
2019-05-28T05:09:16.238Z,58.95
2019-05-28T05:10:19.049Z,58.25
2019-05-28T05:11:16.211Z,58.25
2019-05-28T05:12:16.225Z,58.95
2019-05-28T05:13:16.188Z,59.45
2019-05-28T05:14:16.176Z,58.75
2019-05-28T05:15:16.167Z,58.62
2019-05-28T05:16:16.163Z,58.65
2019-05-28T05:17:16.146Z,58.55
2019-05-28T05:18:16.150Z,58.65
2019-05-28T05:19:16.123Z,58.62
2019-05-28T05:20:16.113Z,58.62
2019-05-28T05:21:16.107Z,58.42
2019-05-28T05:22:16.098Z,58.42
2019-05-28T05:23:16.098Z,58.52
2019-05-28T05:24:16.072Z,58.72
2019-05-28T05:25:16.062Z,58.42
2019-05-28T05:26:16.073Z,58.45
2019-05-28T05:27:16.036Z,58.22
2019-05-28T05:28:16.103Z,58.42
2019-05-28T05:29:16.018Z,57.62
2019-05-28T05:30:16.006Z,57.92
2019-05-28T05:31:15.991Z,58.22
2019-05-28T05:32:15.983Z,57.92
2019-05-28T05:33:20.248Z,57.82
2019-05-28T05:34:15.968Z,57.52
2019-05-28T05:35:15.952Z,57.22
2019-05-28T05:36:15.945Z,56.62
2019-05-28T05:37:15.934Z,57.12
2019-05-28T05:38:15.945Z,55.72
2019-05-28T05:39:15.918Z,56.52
2019-05-28T05:40:15.906Z,56.72
2019-05-28T05:41:15.888Z,56.82
2019-05-28T05:42:15.875Z,56.42
2019-05-28T05:43:15.878Z,55.82
2019-05-28T05:44:15.863Z,55.62
2019-05-28T05:45:15.871Z,55.12
2019-05-28T05:46:15.834Z,54.32
2019-05-28T05:47:15.822Z,54.35
2019-05-28T05:48:15.829Z,54.85
2019-05-28T05:49:15.826Z,54.64
2019-05-28T05:50:15.790Z,54.64
2019-05-28T05:51:15.786Z,55.05
2019-05-28T05:52:15.769Z,54.74
2019-05-28T05:53:15.770Z,54.64
2019-05-28T05:54:15.748Z,54.55
2019-05-28T05:55:15.776Z,54.62
2019-05-28T05:56:15.725Z,54.74
2019-05-28T05:57:15.725Z,55.05
2019-05-28T05:58:15.720Z,54.64
2019-05-28T05:59:15.693Z,54.24
2019-05-28T06:00:15.679Z,55.24
2019-05-28T06:01:15.702Z,54.64
2019-05-28T06:02:15.657Z,54.94
2019-05-28T06:03:15.672Z,54.85
2019-05-28T06:04:15.648Z,54.94
2019-05-28T06:05:15.625Z,54.32
2019-05-28T06:06:15.613Z,54.24
2019-05-28T06:07:15.604Z,54.24
2019-05-28T06:08:15.647Z,54.85
2019-05-28T06:09:15.581Z,54.94
2019-05-28T06:10:15.576Z,54.35
2019-05-28T06:11:15.556Z,54.44
2019-05-28T06:12:15.556Z,54.55
2019-05-28T06:13:15.551Z,54.12
2019-05-28T06:14:15.537Z,54.55
2019-05-28T06:15:15.513Z,54.24
2019-05-28T06:16:15.573Z,54.14
2019-05-28T06:17:15.492Z,54.14
2019-05-28T06:18:15.526Z,53.52
2019-05-28T06:19:15.473Z,54.32
2019-05-28T06:20:15.467Z,53.64
2019-05-28T06:21:18.777Z,53.74
2019-05-28T06:22:15.439Z,53.72
2019-05-28T06:23:15.439Z,53.82
2019-05-28T06:24:15.424Z,54.02
2019-05-28T06:25:15.504Z,54.02
2019-05-28T06:26:15.408Z,56.02
2019-05-28T06:27:15.402Z,54.92
2019-05-28T06:28:15.399Z,56.62
2019-05-28T06:29:15.366Z,56.12
2019-05-28T06:30:15.355Z,55.42
2019-05-28T06:31:15.344Z,56.02
2019-05-28T06:32:15.337Z,54.52
2019-05-28T06:33:15.336Z,55.22
2019-05-28T06:34:15.313Z,54.92
2019-05-28T06:35:15.299Z,54.32
2019-05-28T06:36:15.304Z,54.02
2019-05-28T06:37:15.275Z,54.52
2019-05-28T06:38:15.285Z,54.52
2019-05-28T06:39:15.309Z,54.42
2019-05-28T06:40:15.251Z,54.32
2019-05-28T06:41:15.236Z,54.62
2019-05-28T06:42:15.265Z,54.32
2019-05-28T06:43:15.917Z,54.12
2019-05-28T06:44:15.204Z,53.82
2019-05-28T06:45:15.191Z,54.02
2019-05-28T06:46:15.202Z,53.92
2019-05-28T06:47:15.216Z,53.72
2019-05-28T06:48:15.209Z,53.92
2019-05-28T06:49:15.201Z,54.02
2019-05-28T06:50:15.246Z,53.92
2019-05-28T06:51:15.209Z,53.82
2019-05-28T06:52:15.155Z,53.42
2019-05-28T06:53:15.215Z,53.92
2019-05-28T06:54:15.113Z,54.12
2019-05-28T06:55:15.112Z,53.69
2019-05-28T06:56:15.125Z,53.12
2019-05-28T06:57:22.800Z,53.09
2019-05-28T06:58:16.114Z,52.72
2019-05-28T06:59:15.127Z,52.32
2019-05-28T07:00:15.129Z,53.32
2019-05-28T07:01:15.057Z,52.62
2019-05-28T07:02:15.052Z,52.82
2019-05-28T07:03:15.097Z,52.72
2019-05-28T07:04:29.796Z,52.42
2019-05-28T07:05:16.007Z,52.72
2019-05-28T07:06:15.103Z,52.42
2019-05-28T07:07:15.008Z,52.62
2019-05-28T07:08:15.034Z,52.32
2019-05-28T07:09:14.985Z,52.32
2019-05-28T07:10:14.963Z,52.72
2019-05-28T07:11:14.961Z,52.29
2019-05-28T07:12:17.970Z,52.32
2019-05-28T07:13:14.986Z,53.12
2019-05-28T07:14:14.959Z,52.32
2019-05-28T07:15:14.943Z,52.52
2019-05-28T07:16:14.906Z,52.59
2019-05-28T07:17:14.856Z,52.69
2019-05-28T07:18:14.887Z,52.62
2019-05-28T07:19:24.551Z,52.99
2019-05-28T07:20:15.824Z,53.02
2019-05-28T07:21:14.847Z,53.19
2019-05-28T07:22:14.837Z,52.09
2019-05-28T07:23:14.797Z,52.09
2019-05-28T07:24:14.882Z,52.19
2019-05-28T07:25:14.788Z,51.89
2019-05-28T07:26:14.802Z,52.19
2019-05-28T07:27:14.811Z,52.09
2019-05-28T07:28:14.840Z,51.79
2019-05-28T07:29:14.827Z,51.69
2019-05-28T07:30:14.712Z,51.69
2019-05-28T07:31:14.747Z,51.39
2019-05-28T07:32:14.698Z,50.89
2019-05-28T07:33:14.741Z,51.29
2019-05-28T07:34:29.471Z,51.39
2019-05-28T07:35:15.699Z,51.09
2019-05-28T07:36:14.769Z,51.39
2019-05-28T07:37:15.470Z,51.50
2019-05-28T07:38:14.735Z,51.29
2019-05-28T07:39:14.705Z,51.29
2019-05-28T07:40:30.500Z,51.29
2019-05-28T07:41:15.661Z,50.89
2019-05-28T07:42:14.646Z,50.89
2019-05-28T07:43:14.660Z,51.09
2019-05-28T07:44:14.651Z,50.59
2019-05-28T07:45:14.615Z,51.37
2019-05-28T07:46:14.621Z,50.59
2019-05-28T07:47:14.569Z,50.70
2019-05-28T07:48:14.679Z,51.29
2019-05-28T07:49:14.619Z,51.29
2019-05-28T07:50:14.521Z,51.20
2019-05-28T07:51:14.534Z,51.09
2019-05-28T07:52:14.580Z,51.20
2019-05-28T07:53:14.495Z,51.20
2019-05-28T07:54:14.504Z,50.97
2019-05-28T07:55:14.475Z,50.27
2019-05-28T07:56:14.470Z,50.39
2019-05-28T07:57:14.451Z,50.59
2019-05-28T07:58:14.422Z,50.29
2019-05-28T07:59:14.551Z,50.39
2019-05-28T08:00:14.385Z,50.77
2019-05-28T08:01:14.395Z,50.57
2019-05-28T08:02:14.372Z,49.49
2019-05-28T08:03:14.347Z,48.99
2019-05-28T08:04:14.426Z,49.59
2019-05-28T08:05:17.048Z,49.19
2019-05-28T08:06:14.322Z,49.40
2019-05-28T08:07:14.975Z,49.17
2019-05-28T08:08:14.309Z,48.90
2019-05-28T08:09:14.380Z,49.09
2019-05-28T08:10:14.310Z,48.99
2019-05-28T08:11:14.268Z,50.07
2019-05-28T08:12:14.348Z,49.29
2019-05-28T08:13:14.282Z,49.09
2019-05-28T08:14:14.258Z,49.07
2019-05-28T08:15:14.228Z,48.87
2019-05-28T08:16:18.594Z,49.79
2019-05-28T08:17:14.201Z,48.97
2019-05-28T08:18:14.207Z,48.69
2019-05-28T08:19:14.190Z,49.17
2019-05-28T08:20:14.185Z,48.57
2019-05-28T08:21:14.213Z,48.29
2019-05-28T08:22:14.175Z,48.57
2019-05-28T08:23:14.167Z,49.07
2019-05-28T08:24:14.153Z,48.67
2019-05-28T08:25:27.765Z,48.69
2019-05-28T08:26:15.116Z,48.79
2019-05-28T08:27:14.096Z,48.39
2019-05-28T08:28:19.678Z,48.87
2019-05-28T08:29:15.149Z,48.69
2019-05-28T08:30:14.107Z,48.47
2019-05-28T08:31:17.543Z,48.17
2019-05-28T08:32:15.105Z,48.57
2019-05-28T08:33:14.117Z,48.39
2019-05-28T08:34:14.107Z,48.29
2019-05-28T08:35:14.039Z,48.29
2019-05-28T08:36:14.020Z,47.39
2019-05-28T08:37:13.983Z,47.37
2019-05-28T08:38:14.006Z,47.17
2019-05-28T08:39:13.990Z,47.37
2019-05-28T08:40:14.072Z,47.17
2019-05-28T08:41:13.939Z,47.27
2019-05-28T08:42:13.955Z,47.07
2019-05-28T08:43:13.980Z,47.39
2019-05-28T08:44:13.932Z,47.27
2019-05-28T08:45:14.013Z,46.27
2019-05-28T08:46:13.904Z,47.07
2019-05-28T08:47:13.958Z,46.37
2019-05-28T08:48:13.897Z,46.39
2019-05-28T08:49:13.891Z,46.57
2019-05-28T08:50:13.934Z,46.69
2019-05-28T08:51:13.970Z,46.77
2019-05-28T08:52:13.831Z,46.57
2019-05-28T08:53:13.814Z,46.80
2019-05-28T08:54:13.799Z,46.67
2019-05-28T08:55:13.825Z,46.99
2019-05-28T08:56:13.790Z,46.47
2019-05-28T08:57:13.796Z,46.69
2019-05-28T08:58:13.760Z,47.27
2019-05-28T08:59:13.755Z,47.27
2019-05-28T09:00:13.736Z,46.97
2019-05-28T09:01:13.787Z,46.87
2019-05-28T09:02:27.269Z,46.77
2019-05-28T09:03:14.707Z,46.57
2019-05-28T09:04:13.690Z,47.27
2019-05-28T09:05:25.869Z,46.77
2019-05-28T09:06:14.686Z,46.47
2019-05-28T09:07:13.656Z,46.67
2019-05-28T09:08:13.660Z,46.37
2019-05-28T09:09:13.704Z,46.37
2019-05-28T09:10:13.630Z,45.87
2019-05-28T09:11:13.711Z,45.97
2019-05-28T09:12:13.644Z,46.17
2019-05-28T09:13:13.656Z,45.97
2019-05-28T09:14:13.628Z,46.57
2019-05-28T09:15:13.604Z,45.77
2019-05-28T09:16:13.586Z,45.77
2019-05-28T09:17:13.582Z,45.77
2019-05-28T09:18:13.552Z,45.57
2019-05-28T09:19:13.527Z,45.77
2019-05-28T09:20:13.518Z,45.37
2019-05-28T09:21:13.622Z,46.17
2019-05-28T09:22:25.098Z,46.27
2019-05-28T09:23:14.572Z,45.77
2019-05-28T09:24:13.533Z,46.37
2019-05-28T09:25:13.600Z,45.27
2019-05-28T09:26:13.565Z,45.87
2019-05-28T09:27:13.537Z,46.07
2019-05-28T09:28:28.541Z,45.17
2019-05-28T09:29:14.524Z,45.77
2019-05-28T09:30:13.446Z,46.17
2019-05-28T09:31:13.465Z,45.67
2019-05-28T09:32:13.468Z,45.77
2019-05-28T09:33:13.438Z,45.97
2019-05-28T09:34:13.460Z,45.97
2019-05-28T09:35:13.374Z,45.77
2019-05-28T09:36:13.427Z,45.67
2019-05-28T09:37:13.462Z,45.87
2019-05-28T09:38:13.338Z,45.77
2019-05-28T09:39:13.390Z,45.07
2019-05-28T09:40:14.041Z,45.97
2019-05-28T09:41:13.369Z,45.97
2019-05-28T09:42:13.353Z,45.67
2019-05-28T09:43:13.287Z,45.07
2019-05-28T09:44:13.300Z,45.27
2019-05-28T09:45:22.424Z,45.67
2019-05-28T09:46:14.258Z,46.07
2019-05-28T09:47:13.229Z,45.87
2019-05-28T09:48:13.343Z,45.67
2019-05-28T09:49:13.225Z,45.77
2019-05-28T09:50:29.467Z,45.87
2019-05-28T09:51:14.208Z,45.67
2019-05-28T09:52:13.233Z,45.87
2019-05-28T09:53:13.226Z,45.77
2019-05-28T09:54:13.184Z,46.87
2019-05-28T09:55:13.191Z,46.37
2019-05-28T09:56:13.149Z,45.77
2019-05-28T09:57:13.146Z,45.87
2019-05-28T09:58:13.112Z,45.97
2019-05-28T09:59:13.129Z,45.97
2019-05-28T10:00:15.170Z,45.87
2019-05-28T10:01:13.152Z,45.97
2019-05-28T10:02:13.101Z,45.97
2019-05-28T10:03:13.099Z,45.77
2019-05-28T10:04:13.089Z,45.97
2019-05-28T10:05:13.205Z,45.87
2019-05-28T10:06:17.462Z,46.07
2019-05-28T10:07:13.118Z,46.37
2019-05-28T10:08:13.022Z,46.47
2019-05-28T10:09:13.083Z,45.67
2019-05-28T10:10:13.039Z,46.07
2019-05-28T10:11:12.992Z,45.85
2019-05-28T10:12:12.975Z,45.77
2019-05-28T10:13:12.995Z,46.27
2019-05-28T10:14:12.979Z,45.97
2019-05-28T10:15:13.050Z,45.77
2019-05-28T10:16:13.014Z,46.17
2019-05-28T10:17:12.931Z,46.05
2019-05-28T10:18:13.547Z,46.47
2019-05-28T10:19:12.906Z,46.57
2019-05-28T10:20:13.007Z,46.77
2019-05-28T10:21:18.322Z,46.67
2019-05-28T10:22:13.892Z,46.87
2019-05-28T10:23:12.883Z,46.67
2019-05-28T10:24:12.956Z,46.67
2019-05-28T10:25:12.954Z,46.47
2019-05-28T10:26:12.858Z,45.97
2019-05-28T10:27:12.816Z,46.47
2019-05-28T10:28:12.907Z,46.37
2019-05-28T10:29:12.800Z,46.17
2019-05-28T10:30:12.821Z,45.97
2019-05-28T10:31:12.830Z,46.07
2019-05-28T10:32:12.783Z,46.05
2019-05-28T10:33:12.742Z,45.75
2019-05-28T10:34:12.768Z,45.95
2019-05-28T10:35:12.754Z,46.35
2019-05-28T10:36:12.815Z,45.85
2019-05-28T10:37:12.827Z,46.55
2019-05-28T10:38:15.817Z,46.35
2019-05-28T10:39:12.712Z,46.05
2019-05-28T10:40:12.739Z,46.15
2019-05-28T10:41:12.701Z,45.95
2019-05-28T10:42:12.805Z,46.45
2019-05-28T10:43:12.696Z,46.35
2019-05-28T10:44:12.651Z,46.75
2019-05-28T10:45:12.708Z,46.85
2019-05-28T10:46:12.686Z,46.65
2019-05-28T10:47:12.616Z,46.65
2019-05-28T10:48:12.603Z,46.55
2019-05-28T10:49:12.677Z,45.85
2019-05-28T10:50:12.637Z,46.45
2019-05-28T10:51:12.583Z,46.65
2019-05-28T10:52:12.575Z,46.55
2019-05-28T10:53:12.531Z,46.87
2019-05-28T10:54:12.589Z,45.85
2019-05-28T10:55:15.789Z,45.85
2019-05-28T10:56:12.536Z,45.75
2019-05-28T10:57:12.476Z,45.85
2019-05-28T10:58:12.483Z,45.95
2019-05-28T10:59:12.491Z,45.95
2019-05-28T11:00:12.525Z,45.95
2019-05-28T11:01:12.512Z,45.75
2019-05-28T11:02:12.555Z,45.05
2019-05-28T11:03:12.457Z,44.85
2019-05-28T11:04:12.450Z,44.85
2019-05-28T11:05:12.463Z,45.05
2019-05-28T11:06:12.399Z,44.37
2019-05-28T11:07:12.419Z,44.45
2019-05-28T11:08:12.369Z,44.37
2019-05-28T11:09:12.386Z,45.17
2019-05-28T11:10:23.702Z,44.78
2019-05-28T11:11:13.332Z,44.35
2019-05-28T11:12:12.349Z,44.27
2019-05-28T11:13:12.368Z,43.57
2019-05-28T11:14:12.329Z,44.27
2019-05-28T11:15:12.438Z,44.67
2019-05-28T11:16:12.303Z,43.77
2019-05-28T11:17:12.302Z,44.67
2019-05-28T11:18:12.262Z,44.37
2019-05-28T11:19:12.272Z,44.87
2019-05-28T11:20:12.305Z,44.95
2019-05-28T11:21:12.284Z,44.37
2019-05-28T11:22:12.316Z,45.65
2019-05-28T11:23:12.285Z,45.45
2019-05-28T11:24:12.232Z,45.67
2019-05-28T11:25:12.310Z,44.65
2019-05-28T11:26:12.257Z,43.45
2019-05-28T11:27:12.170Z,43.07
2019-05-28T11:28:12.202Z,43.85
2019-05-28T11:29:12.184Z,44.25
2019-05-28T11:30:12.172Z,43.18
2019-05-28T11:31:12.138Z,43.77
2019-05-28T11:32:12.112Z,43.67
2019-05-28T11:33:12.159Z,43.67
2019-05-28T11:34:12.115Z,43.37
2019-05-28T11:35:12.156Z,43.45
2019-05-28T11:36:12.111Z,43.45
2019-05-28T11:37:12.092Z,42.87
2019-05-28T11:38:12.058Z,43.37
2019-05-28T11:39:12.080Z,43.77
2019-05-28T11:40:12.208Z,43.18
2019-05-28T11:41:12.029Z,43.55
2019-05-28T11:42:12.012Z,43.87
2019-05-28T11:43:12.047Z,44.07
2019-05-28T11:44:12.102Z,43.45
2019-05-28T11:45:14.492Z,44.27
2019-05-28T11:46:11.997Z,43.48
2019-05-28T11:47:12.023Z,43.07
2019-05-28T11:48:11.998Z,43.57
2019-05-28T11:49:11.923Z,43.87
2019-05-28T11:50:11.971Z,44.17
2019-05-28T11:51:11.954Z,43.67
2019-05-28T11:52:11.916Z,43.67
2019-05-28T11:53:11.918Z,44.78
2019-05-28T11:54:11.897Z,45.67
2019-05-28T11:55:11.954Z,45.87
2019-05-28T11:56:11.945Z,47.07
2019-05-28T11:57:11.917Z,46.87
2019-05-28T11:58:11.859Z,47.45
2019-05-28T11:59:11.871Z,47.85
2019-05-28T12:00:11.805Z,48.14
2019-05-28T12:01:11.842Z,48.14
2019-05-28T12:02:11.786Z,47.85
2019-05-28T12:03:11.779Z,48.55
2019-05-28T12:04:11.782Z,48.45
2019-05-28T12:05:11.781Z,48.35
2019-05-28T12:06:11.761Z,49.05
2019-05-28T12:07:25.121Z,48.94
2019-05-28T12:08:12.723Z,47.95
2019-05-28T12:09:11.708Z,47.05
2019-05-28T12:10:11.755Z,47.05
2019-05-28T12:11:11.707Z,48.14
2019-05-28T12:12:11.688Z,46.65
2019-05-28T12:13:11.724Z,46.75
2019-05-28T12:14:11.691Z,46.15
2019-05-28T12:15:11.654Z,45.85
2019-05-28T12:16:11.654Z,45.35
2019-05-28T12:17:11.631Z,45.95
2019-05-28T12:18:11.623Z,45.65
2019-05-28T12:19:11.605Z,46.15
2019-05-28T12:20:12.536Z,45.65
2019-05-28T12:21:11.603Z,45.15
2019-05-28T12:22:11.579Z,45.15
2019-05-28T12:23:12.193Z,46.35
2019-05-28T12:24:11.564Z,46.35
2019-05-28T12:25:11.548Z,45.85
2019-05-28T12:26:11.547Z,46.35
2019-05-28T12:27:11.530Z,46.25
2019-05-28T12:28:11.515Z,45.35
2019-05-28T12:29:11.501Z,45.35
2019-05-28T12:30:11.492Z,44.15
2019-05-28T12:31:11.494Z,45.65
2019-05-28T12:32:11.620Z,45.65
2019-05-28T12:33:11.457Z,45.05
2019-05-28T12:34:11.458Z,44.73
2019-05-28T12:35:26.620Z,44.75
2019-05-28T12:36:12.442Z,44.15
2019-05-28T12:37:11.421Z,44.45
2019-05-28T12:38:11.408Z,43.45
2019-05-28T12:39:11.401Z,43.85
2019-05-28T12:40:11.458Z,44.55
2019-05-28T12:41:11.440Z,44.15
2019-05-28T12:42:11.363Z,44.15
2019-05-28T12:43:11.352Z,43.35
2019-05-28T12:44:11.392Z,43.35
2019-05-28T12:45:11.336Z,42.05
2019-05-28T12:46:11.341Z,43.45
2019-05-28T12:47:14.630Z,42.05
2019-05-28T12:48:13.297Z,42.65
2019-05-28T12:49:11.297Z,42.35
2019-05-28T12:50:20.576Z,42.15
2019-05-28T12:51:12.396Z,42.46
2019-05-28T12:52:11.328Z,42.46